sensor_id;sensor_type;location;lat;lon;timestamp;temperature;humidity
48860;DHT22;34679;51.436;-2.518;2024-03-07T00:02:17;7.10;99.90
48860;DHT22;34679;51.436;-2.518;2024-03-07T00:04:43;7.10;99.90
48860;DHT22;34679;51.436;-2.518;2024-03-07T00:07:09;7.10;99.90
48860;DHT22;34679;51.436;-2.518;2024-03-07T00:09:35;7.10;99.90
48860;DHT22;34679;51.436;-2.518;2024-03-07T00:12:02;7.10;99.90
48860;DHT22;34679;51.436;-2.518;2024-03-07T00:14:28;7.00;99.90
48860;DHT22;34679;51.436;-2.518;2024-03-07T00:16:57;7.00;99.90
48860;DHT22;34679;51.436;-2.518;2024-03-07T00:19:24;7.10;99.90
48860;DHT22;34679;51.436;-2.518;2024-03-07T00:21:53;7.10;99.90
48860;DHT22;34679;51.436;-2.518;2024-03-07T00:24:19;7.10;99.90
48860;DHT22;34679;51.436;-2.518;2024-03-07T00:26:45;7.10;99.90
48860;DHT22;34679;51.436;-2.518;2024-03-07T00:29:11;7.20;99.90
48860;DHT22;34679;51.436;-2.518;2024-03-07T00:31:37;7.20;99.90
48860;DHT22;34679;51.436;-2.518;2024-03-07T00:34:02;7.20;99.90
48860;DHT22;34679;51.436;-2.518;2024-03-07T00:36:28;7.20;99.90
48860;DHT22;34679;51.436;-2.518;2024-03-07T00:38:54;7.20;99.90
48860;DHT22;34679;51.436;-2.518;2024-03-07T00:41:20;7.20;99.90
48860;DHT22;34679;51.436;-2.518;2024-03-07T00:43:46;7.20;99.90
48860;DHT22;34679;51.436;-2.518;2024-03-07T00:46:12;7.20;99.90
48860;DHT22;34679;51.436;-2.518;2024-03-07T00:48:38;7.30;99.90
48860;DHT22;34679;51.436;-2.518;2024-03-07T00:51:04;7.30;99.90
48860;DHT22;34679;51.436;-2.518;2024-03-07T00:53:30;7.40;99.90
48860;DHT22;34679;51.436;-2.518;2024-03-07T00:55:56;7.40;99.90
48860;DHT22;34679;51.436;-2.518;2024-03-07T00:58:22;7.40;99.90
48860;DHT22;34679;51.436;-2.518;2024-03-07T01:00:48;7.40;99.90
48860;DHT22;34679;51.436;-2.518;2024-03-07T01:03:14;7.40;99.90
48860;DHT22;34679;51.436;-2.518;2024-03-07T01:05:40;7.40;99.90
48860;DHT22;34679;51.436;-2.518;2024-03-07T01:08:06;7.40;99.90
48860;DHT22;34679;51.436;-2.518;2024-03-07T01:10:32;7.40;99.90
48860;DHT22;34679;51.436;-2.518;2024-03-07T01:12:57;7.30;99.90
48860;DHT22;34679;51.436;-2.518;2024-03-07T01:15:29;7.30;99.90
48860;DHT22;34679;51.436;-2.518;2024-03-07T01:17:55;7.20;99.90
48860;DHT22;34679;51.436;-2.518;2024-03-07T01:20:21;7.20;99.90
48860;DHT22;34679;51.436;-2.518;2024-03-07T01:22:53;7.10;99.90
48860;DHT22;34679;51.436;-2.518;2024-03-07T01:25:18;7.10;99.90
48860;DHT22;34679;51.436;-2.518;2024-03-07T01:27:44;7.10;99.90
48860;DHT22;34679;51.436;-2.518;2024-03-07T01:30:10;7.10;99.90
48860;DHT22;34679;51.436;-2.518;2024-03-07T01:32:37;7.10;99.90
48860;DHT22;34679;51.436;-2.518;2024-03-07T01:35:02;7.10;99.90
48860;DHT22;34679;51.436;-2.518;2024-03-07T01:37:28;7.10;99.90
48860;DHT22;34679;51.436;-2.518;2024-03-07T01:39:54;7.10;99.90
48860;DHT22;34679;51.436;-2.518;2024-03-07T01:42:20;7.00;99.90
48860;DHT22;34679;51.436;-2.518;2024-03-07T01:44:46;6.90;99.90
48860;DHT22;34679;51.436;-2.518;2024-03-07T01:47:12;6.80;99.90
48860;DHT22;34679;51.436;-2.518;2024-03-07T01:49:38;6.70;99.90
48860;DHT22;34679;51.436;-2.518;2024-03-07T01:52:05;6.60;99.90
48860;DHT22;34679;51.436;-2.518;2024-03-07T01:54:31;6.70;99.90
48860;DHT22;34679;51.436;-2.518;2024-03-07T01:56:57;6.80;99.90
48860;DHT22;34679;51.436;-2.518;2024-03-07T01:59:24;6.80;99.90
48860;DHT22;34679;51.436;-2.518;2024-03-07T02:01:50;6.80;99.90
48860;DHT22;34679;51.436;-2.518;2024-03-07T02:04:16;6.90;99.90
48860;DHT22;34679;51.436;-2.518;2024-03-07T02:06:42;6.90;99.90
48860;DHT22;34679;51.436;-2.518;2024-03-07T02:09:08;6.90;99.90
48860;DHT22;34679;51.436;-2.518;2024-03-07T02:11:34;7.00;99.90
48860;DHT22;34679;51.436;-2.518;2024-03-07T02:14:00;7.00;99.90
48860;DHT22;34679;51.436;-2.518;2024-03-07T02:16:25;7.10;99.90
48860;DHT22;34679;51.436;-2.518;2024-03-07T02:18:51;7.10;99.90
48860;DHT22;34679;51.436;-2.518;2024-03-07T02:21:17;7.20;99.90
48860;DHT22;34679;51.436;-2.518;2024-03-07T02:23:43;7.20;99.90
48860;DHT22;34679;51.436;-2.518;2024-03-07T02:26:09;7.20;99.90
48860;DHT22;34679;51.436;-2.518;2024-03-07T02:28:35;7.20;99.90
48860;DHT22;34679;51.436;-2.518;2024-03-07T02:31:01;7.10;99.90
48860;DHT22;34679;51.436;-2.518;2024-03-07T02:33:26;7.10;99.90
48860;DHT22;34679;51.436;-2.518;2024-03-07T02:35:52;7.10;99.90
48860;DHT22;34679;51.436;-2.518;2024-03-07T02:38:18;7.10;99.90
48860;DHT22;34679;51.436;-2.518;2024-03-07T02:40:45;7.10;99.90
48860;DHT22;34679;51.436;-2.518;2024-03-07T02:43:12;7.10;99.90
48860;DHT22;34679;51.436;-2.518;2024-03-07T02:45:38;7.10;99.90
48860;DHT22;34679;51.436;-2.518;2024-03-07T02:48:04;7.10;99.90
48860;DHT22;34679;51.436;-2.518;2024-03-07T02:50:35;7.10;99.90
48860;DHT22;34679;51.436;-2.518;2024-03-07T02:53:03;7.10;99.90
48860;DHT22;34679;51.436;-2.518;2024-03-07T02:55:29;7.10;99.90
48860;DHT22;34679;51.436;-2.518;2024-03-07T02:57:55;7.10;99.90
48860;DHT22;34679;51.436;-2.518;2024-03-07T03:00:24;7.10;99.90
48860;DHT22;34679;51.436;-2.518;2024-03-07T03:02:55;7.00;99.90
48860;DHT22;34679;51.436;-2.518;2024-03-07T03:05:22;7.00;99.90
48860;DHT22;34679;51.436;-2.518;2024-03-07T03:07:48;6.90;99.90
48860;DHT22;34679;51.436;-2.518;2024-03-07T03:10:24;6.90;99.90
48860;DHT22;34679;51.436;-2.518;2024-03-07T03:12:57;6.90;99.90
48860;DHT22;34679;51.436;-2.518;2024-03-07T03:15:24;6.90;99.90
48860;DHT22;34679;51.436;-2.518;2024-03-07T03:17:50;6.90;99.90
48860;DHT22;34679;51.436;-2.518;2024-03-07T03:20:17;6.80;99.90
48860;DHT22;34679;51.436;-2.518;2024-03-07T03:22:59;6.80;99.90
48860;DHT22;34679;51.436;-2.518;2024-03-07T03:25:25;6.70;99.90
48860;DHT22;34679;51.436;-2.518;2024-03-07T03:27:52;6.70;99.90
48860;DHT22;34679;51.436;-2.518;2024-03-07T03:30:18;6.60;99.90
48860;DHT22;34679;51.436;-2.518;2024-03-07T03:32:47;6.50;99.90
48860;DHT22;34679;51.436;-2.518;2024-03-07T03:35:16;6.40;99.90
48860;DHT22;34679;51.436;-2.518;2024-03-07T03:37:42;6.40;99.90
48860;DHT22;34679;51.436;-2.518;2024-03-07T03:40:09;6.20;99.90
48860;DHT22;34679;51.436;-2.518;2024-03-07T03:42:36;6.20;99.90
48860;DHT22;34679;51.436;-2.518;2024-03-07T03:45:03;6.10;99.90
48860;DHT22;34679;51.436;-2.518;2024-03-07T03:47:33;6.10;99.90
48860;DHT22;34679;51.436;-2.518;2024-03-07T03:49:59;5.90;99.90
48860;DHT22;34679;51.436;-2.518;2024-03-07T03:52:25;5.80;99.90
48860;DHT22;34679;51.436;-2.518;2024-03-07T03:54:51;5.70;99.90
48860;DHT22;34679;51.436;-2.518;2024-03-07T03:57:17;5.60;99.90
48860;DHT22;34679;51.436;-2.518;2024-03-07T03:59:44;5.50;99.90
48860;DHT22;34679;51.436;-2.518;2024-03-07T04:02:10;5.50;99.90
48860;DHT22;34679;51.436;-2.518;2024-03-07T04:04:39;5.50;99.90
48860;DHT22;34679;51.436;-2.518;2024-03-07T04:07:05;5.40;99.90
48860;DHT22;34679;51.436;-2.518;2024-03-07T04:09:30;5.40;99.90
48860;DHT22;34679;51.436;-2.518;2024-03-07T04:11:57;5.40;99.90
48860;DHT22;34679;51.436;-2.518;2024-03-07T04:14:23;5.30;99.90
48860;DHT22;34679;51.436;-2.518;2024-03-07T04:16:49;5.10;99.90
48860;DHT22;34679;51.436;-2.518;2024-03-07T04:19:15;5.20;99.90
48860;DHT22;34679;51.436;-2.518;2024-03-07T04:21:40;5.20;99.90
48860;DHT22;34679;51.436;-2.518;2024-03-07T04:24:07;5.20;99.90
48860;DHT22;34679;51.436;-2.518;2024-03-07T04:26:33;5.20;99.90
48860;DHT22;34679;51.436;-2.518;2024-03-07T04:28:58;5.10;99.90
48860;DHT22;34679;51.436;-2.518;2024-03-07T04:31:24;5.00;99.90
48860;DHT22;34679;51.436;-2.518;2024-03-07T04:33:49;5.00;99.90
48860;DHT22;34679;51.436;-2.518;2024-03-07T04:36:16;4.90;99.90
48860;DHT22;34679;51.436;-2.518;2024-03-07T04:38:42;4.90;99.90
48860;DHT22;34679;51.436;-2.518;2024-03-07T04:41:13;4.80;99.90
48860;DHT22;34679;51.436;-2.518;2024-03-07T04:43:40;4.80;99.90
48860;DHT22;34679;51.436;-2.518;2024-03-07T04:46:08;4.90;99.90
48860;DHT22;34679;51.436;-2.518;2024-03-07T04:48:34;4.90;99.90
48860;DHT22;34679;51.436;-2.518;2024-03-07T04:50:59;4.90;99.90
48860;DHT22;34679;51.436;-2.518;2024-03-07T04:53:25;4.90;99.90
48860;DHT22;34679;51.436;-2.518;2024-03-07T04:55:51;4.90;99.90
48860;DHT22;34679;51.436;-2.518;2024-03-07T04:58:17;4.90;99.90
48860;DHT22;34679;51.436;-2.518;2024-03-07T05:00:43;4.80;99.90
48860;DHT22;34679;51.436;-2.518;2024-03-07T05:03:09;4.80;99.90
48860;DHT22;34679;51.436;-2.518;2024-03-07T05:05:35;4.70;99.90
48860;DHT22;34679;51.436;-2.518;2024-03-07T05:08:00;4.70;99.90
48860;DHT22;34679;51.436;-2.518;2024-03-07T05:10:26;4.70;99.90
48860;DHT22;34679;51.436;-2.518;2024-03-07T05:12:55;4.70;99.90
48860;DHT22;34679;51.436;-2.518;2024-03-07T05:15:21;4.70;99.90
48860;DHT22;34679;51.436;-2.518;2024-03-07T05:17:51;4.70;99.90
48860;DHT22;34679;51.436;-2.518;2024-03-07T05:20:17;4.70;99.90
48860;DHT22;34679;51.436;-2.518;2024-03-07T05:22:43;4.60;99.90
48860;DHT22;34679;51.436;-2.518;2024-03-07T05:25:19;4.60;99.90
48860;DHT22;34679;51.436;-2.518;2024-03-07T05:27:48;4.50;99.90
48860;DHT22;34679;51.436;-2.518;2024-03-07T05:30:16;4.40;99.90
48860;DHT22;34679;51.436;-2.518;2024-03-07T05:32:42;4.40;99.90
48860;DHT22;34679;51.436;-2.518;2024-03-07T05:35:09;4.20;99.90
48860;DHT22;34679;51.436;-2.518;2024-03-07T05:37:36;4.20;99.90
48860;DHT22;34679;51.436;-2.518;2024-03-07T05:40:02;4.20;99.90
48860;DHT22;34679;51.436;-2.518;2024-03-07T05:42:29;4.20;99.90
48860;DHT22;34679;51.436;-2.518;2024-03-07T05:44:57;4.10;99.90
48860;DHT22;34679;51.436;-2.518;2024-03-07T05:47:23;4.10;99.90
48860;DHT22;34679;51.436;-2.518;2024-03-07T05:49:48;4.10;99.90
48860;DHT22;34679;51.436;-2.518;2024-03-07T05:52:14;4.10;99.90
48860;DHT22;34679;51.436;-2.518;2024-03-07T05:54:40;4.00;99.90
48860;DHT22;34679;51.436;-2.518;2024-03-07T05:57:06;4.00;99.90
48860;DHT22;34679;51.436;-2.518;2024-03-07T05:59:32;4.00;99.90
48860;DHT22;34679;51.436;-2.518;2024-03-07T06:01:58;4.00;99.90
48860;DHT22;34679;51.436;-2.518;2024-03-07T06:04:24;3.90;99.90
48860;DHT22;34679;51.436;-2.518;2024-03-07T06:06:49;3.90;99.90
48860;DHT22;34679;51.436;-2.518;2024-03-07T06:09:15;4.00;99.90
48860;DHT22;34679;51.436;-2.518;2024-03-07T06:11:47;4.10;99.90
48860;DHT22;34679;51.436;-2.518;2024-03-07T06:14:12;4.10;99.90
48860;DHT22;34679;51.436;-2.518;2024-03-07T06:16:39;4.00;99.90
48860;DHT22;34679;51.436;-2.518;2024-03-07T06:19:07;4.10;99.90
48860;DHT22;34679;51.436;-2.518;2024-03-07T06:21:33;4.10;99.90
48860;DHT22;34679;51.436;-2.518;2024-03-07T06:23:59;4.20;99.90
48860;DHT22;34679;51.436;-2.518;2024-03-07T06:26:43;4.20;99.90
48860;DHT22;34679;51.436;-2.518;2024-03-07T06:29:25;4.20;99.90
48860;DHT22;34679;51.436;-2.518;2024-03-07T06:31:52;4.30;99.90
48860;DHT22;34679;51.436;-2.518;2024-03-07T06:34:19;4.20;99.90
48860;DHT22;34679;51.436;-2.518;2024-03-07T06:36:45;4.20;99.90
48860;DHT22;34679;51.436;-2.518;2024-03-07T06:39:10;4.30;99.90
48860;DHT22;34679;51.436;-2.518;2024-03-07T06:41:37;4.30;99.90
48860;DHT22;34679;51.436;-2.518;2024-03-07T06:44:03;4.30;99.90
48860;DHT22;34679;51.436;-2.518;2024-03-07T06:46:29;4.30;99.90
48860;DHT22;34679;51.436;-2.518;2024-03-07T06:48:56;4.30;99.90
48860;DHT22;34679;51.436;-2.518;2024-03-07T06:51:22;4.40;99.90
48860;DHT22;34679;51.436;-2.518;2024-03-07T06:53:48;4.40;99.90
48860;DHT22;34679;51.436;-2.518;2024-03-07T06:59:24;4.50;99.90
48860;DHT22;34679;51.436;-2.518;2024-03-07T07:01:50;4.60;99.90
48860;DHT22;34679;51.436;-2.518;2024-03-07T07:04:16;4.70;99.90
48860;DHT22;34679;51.436;-2.518;2024-03-07T07:06:42;4.80;99.90
48860;DHT22;34679;51.436;-2.518;2024-03-07T07:09:08;4.90;99.90
48860;DHT22;34679;51.436;-2.518;2024-03-07T07:11:34;5.10;99.90
48860;DHT22;34679;51.436;-2.518;2024-03-07T07:14:01;5.20;99.90
48860;DHT22;34679;51.436;-2.518;2024-03-07T07:16:28;5.30;99.90
48860;DHT22;34679;51.436;-2.518;2024-03-07T07:18:55;5.30;99.90
48860;DHT22;34679;51.436;-2.518;2024-03-07T07:21:21;5.50;99.90
48860;DHT22;34679;51.436;-2.518;2024-03-07T07:23:47;5.50;99.90
48860;DHT22;34679;51.436;-2.518;2024-03-07T07:26:12;5.60;99.90
48860;DHT22;34679;51.436;-2.518;2024-03-07T07:28:38;5.60;99.90
48860;DHT22;34679;51.436;-2.518;2024-03-07T07:31:05;5.70;99.90
48860;DHT22;34679;51.436;-2.518;2024-03-07T07:33:31;5.80;99.90
48860;DHT22;34679;51.436;-2.518;2024-03-07T07:35:57;5.80;99.90
48860;DHT22;34679;51.436;-2.518;2024-03-07T07:38:22;6.00;99.90
48860;DHT22;34679;51.436;-2.518;2024-03-07T07:40:48;6.00;99.90
48860;DHT22;34679;51.436;-2.518;2024-03-07T07:43:16;6.10;99.90
48860;DHT22;34679;51.436;-2.518;2024-03-07T07:45:42;6.20;99.90
48860;DHT22;34679;51.436;-2.518;2024-03-07T07:48:08;6.30;99.90
48860;DHT22;34679;51.436;-2.518;2024-03-07T07:50:33;6.30;99.90
48860;DHT22;34679;51.436;-2.518;2024-03-07T07:53:00;6.30;99.90
48860;DHT22;34679;51.436;-2.518;2024-03-07T07:55:29;6.40;99.90
48860;DHT22;34679;51.436;-2.518;2024-03-07T07:57:56;6.40;99.90
48860;DHT22;34679;51.436;-2.518;2024-03-07T08:00:26;6.50;99.90
48860;DHT22;34679;51.436;-2.518;2024-03-07T08:03:01;6.60;99.90
48860;DHT22;34679;51.436;-2.518;2024-03-07T08:05:29;6.60;99.90
48860;DHT22;34679;51.436;-2.518;2024-03-07T08:07:57;6.60;99.90
48860;DHT22;34679;51.436;-2.518;2024-03-07T08:10:28;6.70;99.90
48860;DHT22;34679;51.436;-2.518;2024-03-07T08:12:55;6.80;99.90
48860;DHT22;34679;51.436;-2.518;2024-03-07T08:15:21;6.70;99.90
48860;DHT22;34679;51.436;-2.518;2024-03-07T08:17:47;6.80;99.90
48860;DHT22;34679;51.436;-2.518;2024-03-07T08:20:17;6.90;99.90
48860;DHT22;34679;51.436;-2.518;2024-03-07T08:22:44;6.90;99.90
48860;DHT22;34679;51.436;-2.518;2024-03-07T08:25:11;6.90;99.90
48860;DHT22;34679;51.436;-2.518;2024-03-07T08:27:39;7.00;99.90
48860;DHT22;34679;51.436;-2.518;2024-03-07T08:30:06;7.10;99.90
48860;DHT22;34679;51.436;-2.518;2024-03-07T08:32:33;7.00;99.90
48860;DHT22;34679;51.436;-2.518;2024-03-07T08:35:03;7.10;99.90
48860;DHT22;34679;51.436;-2.518;2024-03-07T08:37:35;7.20;99.90
48860;DHT22;34679;51.436;-2.518;2024-03-07T08:40:03;7.20;99.90
48860;DHT22;34679;51.436;-2.518;2024-03-07T08:42:37;7.30;99.90
48860;DHT22;34679;51.436;-2.518;2024-03-07T08:45:04;7.40;99.90
48860;DHT22;34679;51.436;-2.518;2024-03-07T08:47:37;7.50;99.90
48860;DHT22;34679;51.436;-2.518;2024-03-07T08:50:04;7.60;99.90
48860;DHT22;34679;51.436;-2.518;2024-03-07T08:52:34;7.70;99.90
48860;DHT22;34679;51.436;-2.518;2024-03-07T08:55:02;7.90;99.90
48860;DHT22;34679;51.436;-2.518;2024-03-07T08:57:29;8.10;99.90
48860;DHT22;34679;51.436;-2.518;2024-03-07T09:00:19;8.10;99.90
48860;DHT22;34679;51.436;-2.518;2024-03-07T09:02:59;8.40;99.90
48860;DHT22;34679;51.436;-2.518;2024-03-07T09:05:32;8.50;99.90
48860;DHT22;34679;51.436;-2.518;2024-03-07T09:07:59;8.90;99.90
48860;DHT22;34679;51.436;-2.518;2024-03-07T09:10:25;9.30;99.90
48860;DHT22;34679;51.436;-2.518;2024-03-07T09:12:51;9.60;99.90
48860;DHT22;34679;51.436;-2.518;2024-03-07T09:15:17;9.80;99.90
48860;DHT22;34679;51.436;-2.518;2024-03-07T09:17:44;9.80;99.90
48860;DHT22;34679;51.436;-2.518;2024-03-07T09:20:13;9.70;99.90
48860;DHT22;34679;51.436;-2.518;2024-03-07T09:22:44;9.80;99.90
48860;DHT22;34679;51.436;-2.518;2024-03-07T09:25:11;9.90;99.90
48860;DHT22;34679;51.436;-2.518;2024-03-07T09:27:38;9.80;99.90
48860;DHT22;34679;51.436;-2.518;2024-03-07T09:30:07;9.70;99.90
48860;DHT22;34679;51.436;-2.518;2024-03-07T09:32:38;9.80;99.90
48860;DHT22;34679;51.436;-2.518;2024-03-07T09:35:04;9.90;99.90
48860;DHT22;34679;51.436;-2.518;2024-03-07T09:37:32;10.00;99.90
48860;DHT22;34679;51.436;-2.518;2024-03-07T09:39:58;10.00;99.90
48860;DHT22;34679;51.436;-2.518;2024-03-07T09:42:25;9.90;99.90
48860;DHT22;34679;51.436;-2.518;2024-03-07T09:44:54;9.80;99.90
48860;DHT22;34679;51.436;-2.518;2024-03-07T09:47:22;9.60;99.90
48860;DHT22;34679;51.436;-2.518;2024-03-07T09:49:47;9.70;99.90
48860;DHT22;34679;51.436;-2.518;2024-03-07T09:52:14;9.90;99.90
48860;DHT22;34679;51.436;-2.518;2024-03-07T09:54:42;10.10;99.90
48860;DHT22;34679;51.436;-2.518;2024-03-07T09:57:07;10.30;99.90
48860;DHT22;34679;51.436;-2.518;2024-03-07T09:59:37;10.70;99.90
48860;DHT22;34679;51.436;-2.518;2024-03-07T10:02:07;10.90;99.90
48860;DHT22;34679;51.436;-2.518;2024-03-07T10:04:44;10.80;99.90
48860;DHT22;34679;51.436;-2.518;2024-03-07T10:07:15;10.60;99.90
48860;DHT22;34679;51.436;-2.518;2024-03-07T10:09:42;10.40;99.90
48860;DHT22;34679;51.436;-2.518;2024-03-07T10:12:09;10.30;99.90
48860;DHT22;34679;51.436;-2.518;2024-03-07T10:15:10;10.20;99.90
48860;DHT22;34679;51.436;-2.518;2024-03-07T10:17:39;10.10;99.90
48860;DHT22;34679;51.436;-2.518;2024-03-07T10:20:06;10.00;99.90
48860;DHT22;34679;51.436;-2.518;2024-03-07T10:22:36;10.20;99.90
48860;DHT22;34679;51.436;-2.518;2024-03-07T10:25:03;10.10;99.90
48860;DHT22;34679;51.436;-2.518;2024-03-07T10:27:29;10.00;99.90
48860;DHT22;34679;51.436;-2.518;2024-03-07T10:29:55;8.30;99.90
48860;DHT22;34679;51.436;-2.518;2024-03-07T10:32:22;10.10;99.90
48860;DHT22;34679;51.436;-2.518;2024-03-07T10:34:51;10.30;99.90
48860;DHT22;34679;51.436;-2.518;2024-03-07T10:37:17;10.50;99.90
48860;DHT22;34679;51.436;-2.518;2024-03-07T10:39:46;10.70;99.90
48860;DHT22;34679;51.436;-2.518;2024-03-07T10:42:17;11.00;99.90
48860;DHT22;34679;51.436;-2.518;2024-03-07T10:44:47;11.20;99.90
48860;DHT22;34679;51.436;-2.518;2024-03-07T10:47:17;11.50;99.90
48860;DHT22;34679;51.436;-2.518;2024-03-07T10:50:13;11.70;99.90
48860;DHT22;34679;51.436;-2.518;2024-03-07T10:52:54;11.70;99.90
48860;DHT22;34679;51.436;-2.518;2024-03-07T10:57:50;11.90;99.90
48860;DHT22;34679;51.436;-2.518;2024-03-07T11:00:23;11.50;99.90
48860;DHT22;34679;51.436;-2.518;2024-03-07T11:03:21;11.40;99.90
48860;DHT22;34679;51.436;-2.518;2024-03-07T11:05:47;11.10;99.90
48860;DHT22;34679;51.436;-2.518;2024-03-07T11:08:15;11.20;99.90
48860;DHT22;34679;51.436;-2.518;2024-03-07T11:10:42;11.20;99.90
48860;DHT22;34679;51.436;-2.518;2024-03-07T11:13:10;11.10;99.90
48860;DHT22;34679;51.436;-2.518;2024-03-07T11:15:41;10.90;99.90
48860;DHT22;34679;51.436;-2.518;2024-03-07T11:18:09;10.80;99.90
48860;DHT22;34679;51.436;-2.518;2024-03-07T11:20:39;10.80;99.90
48860;DHT22;34679;51.436;-2.518;2024-03-07T11:23:32;10.90;99.90
48860;DHT22;34679;51.436;-2.518;2024-03-07T11:26:09;11.20;99.90
48860;DHT22;34679;51.436;-2.518;2024-03-07T11:28:42;11.60;99.90
48860;DHT22;34679;51.436;-2.518;2024-03-07T11:33:37;11.70;99.90
48860;DHT22;34679;51.436;-2.518;2024-03-07T11:36:10;11.50;99.90
48860;DHT22;34679;51.436;-2.518;2024-03-07T11:38:41;11.40;99.90
48860;DHT22;34679;51.436;-2.518;2024-03-07T11:41:09;11.30;99.90
48860;DHT22;34679;51.436;-2.518;2024-03-07T11:43:39;11.40;99.90
48860;DHT22;34679;51.436;-2.518;2024-03-07T11:46:06;11.30;99.90
48860;DHT22;34679;51.436;-2.518;2024-03-07T11:48:39;12.80;99.90
48860;DHT22;34679;51.436;-2.518;2024-03-07T11:51:07;11.40;99.90
48860;DHT22;34679;51.436;-2.518;2024-03-07T11:53:39;11.40;99.90
48860;DHT22;34679;51.436;-2.518;2024-03-07T11:56:05;11.50;99.90
48860;DHT22;34679;51.436;-2.518;2024-03-07T11:58:38;11.60;99.90
48860;DHT22;34679;51.436;-2.518;2024-03-07T12:01:06;11.70;99.90
48860;DHT22;34679;51.436;-2.518;2024-03-07T12:03:36;11.90;99.90
48860;DHT22;34679;51.436;-2.518;2024-03-07T12:06:03;12.10;99.90
48860;DHT22;34679;51.436;-2.518;2024-03-07T12:08:32;12.10;99.90
48860;DHT22;34679;51.436;-2.518;2024-03-07T12:10:58;12.00;99.90
48860;DHT22;34679;51.436;-2.518;2024-03-07T12:13:24;11.80;99.90
48860;DHT22;34679;51.436;-2.518;2024-03-07T12:15:52;11.70;99.90
48860;DHT22;34679;51.436;-2.518;2024-03-07T12:18:19;11.50;99.90
48860;DHT22;34679;51.436;-2.518;2024-03-07T12:20:46;11.50;99.90
48860;DHT22;34679;51.436;-2.518;2024-03-07T12:23:16;11.50;99.90
48860;DHT22;34679;51.436;-2.518;2024-03-07T12:25:45;11.60;99.90
48860;DHT22;34679;51.436;-2.518;2024-03-07T12:28:14;11.60;99.90
48860;DHT22;34679;51.436;-2.518;2024-03-07T12:33:13;12.10;99.90
48860;DHT22;34679;51.436;-2.518;2024-03-07T12:35:47;12.10;99.90
48860;DHT22;34679;51.436;-2.518;2024-03-07T12:38:15;11.90;99.90
48860;DHT22;34679;51.436;-2.518;2024-03-07T12:40:43;12.10;99.90
48860;DHT22;34679;51.436;-2.518;2024-03-07T12:43:17;12.20;99.90
48860;DHT22;34679;51.436;-2.518;2024-03-07T12:45:50;12.40;99.90
48860;DHT22;34679;51.436;-2.518;2024-03-07T12:48:20;12.40;99.90
48860;DHT22;34679;51.436;-2.518;2024-03-07T12:50:50;12.50;99.90
48860;DHT22;34679;51.436;-2.518;2024-03-07T12:53:27;12.30;99.90
48860;DHT22;34679;51.436;-2.518;2024-03-07T12:55:54;12.40;99.90
48860;DHT22;34679;51.436;-2.518;2024-03-07T12:58:20;12.30;99.90
48860;DHT22;34679;51.436;-2.518;2024-03-07T13:00:56;12.10;99.90
48860;DHT22;34679;51.436;-2.518;2024-03-07T13:03:24;12.10;99.90
48860;DHT22;34679;51.436;-2.518;2024-03-07T13:05:56;12.10;99.90
48860;DHT22;34679;51.436;-2.518;2024-03-07T13:08:26;12.40;99.90
48860;DHT22;34679;51.436;-2.518;2024-03-07T13:10:54;12.20;99.90
48860;DHT22;34679;51.436;-2.518;2024-03-07T13:13:21;12.40;99.90
48860;DHT22;34679;51.436;-2.518;2024-03-07T13:15:47;12.20;99.90
48860;DHT22;34679;51.436;-2.518;2024-03-07T13:18:13;12.40;99.90
48860;DHT22;34679;51.436;-2.518;2024-03-07T13:20:39;12.40;99.90
48860;DHT22;34679;51.436;-2.518;2024-03-07T13:23:04;12.40;99.90
48860;DHT22;34679;51.436;-2.518;2024-03-07T13:25:31;12.60;99.90
48860;DHT22;34679;51.436;-2.518;2024-03-07T13:28:02;12.70;99.90
48860;DHT22;34679;51.436;-2.518;2024-03-07T13:30:29;12.70;99.90
48860;DHT22;34679;51.436;-2.518;2024-03-07T13:32:59;13.10;99.90
48860;DHT22;34679;51.436;-2.518;2024-03-07T13:35:25;13.40;99.90
48860;DHT22;34679;51.436;-2.518;2024-03-07T13:37:52;13.50;99.90
48860;DHT22;34679;51.436;-2.518;2024-03-07T13:40:26;13.10;99.90
48860;DHT22;34679;51.436;-2.518;2024-03-07T13:42:54;12.60;99.90
48860;DHT22;34679;51.436;-2.518;2024-03-07T13:45:25;12.40;99.90
48860;DHT22;34679;51.436;-2.518;2024-03-07T13:47:55;12.30;99.90
48860;DHT22;34679;51.436;-2.518;2024-03-07T13:50:23;12.30;99.90
48860;DHT22;34679;51.436;-2.518;2024-03-07T13:52:52;12.30;99.90
48860;DHT22;34679;51.436;-2.518;2024-03-07T14:24:10;11.80;99.90
48860;DHT22;34679;51.436;-2.518;2024-03-07T14:32:01;12.00;99.90
48860;DHT22;34679;51.436;-2.518;2024-03-07T14:37:03;11.80;99.90
48860;DHT22;34679;51.436;-2.518;2024-03-07T14:39:29;11.70;99.90
48860;DHT22;34679;51.436;-2.518;2024-03-07T14:42:05;11.60;99.90
48860;DHT22;34679;51.436;-2.518;2024-03-07T14:44:42;11.60;99.90
48860;DHT22;34679;51.436;-2.518;2024-03-07T14:47:09;11.70;99.90
48860;DHT22;34679;51.436;-2.518;2024-03-07T14:49:40;11.70;99.90
48860;DHT22;34679;51.436;-2.518;2024-03-07T14:52:06;11.60;99.90
48860;DHT22;34679;51.436;-2.518;2024-03-07T14:54:37;11.70;99.90
48860;DHT22;34679;51.436;-2.518;2024-03-07T14:57:08;11.50;99.90
48860;DHT22;34679;51.436;-2.518;2024-03-07T14:59:36;11.60;99.90
48860;DHT22;34679;51.436;-2.518;2024-03-07T15:02:02;11.70;99.90
48860;DHT22;34679;51.436;-2.518;2024-03-07T15:04:30;11.60;99.90
48860;DHT22;34679;51.436;-2.518;2024-03-07T15:06:58;11.50;99.90
48860;DHT22;34679;51.436;-2.518;2024-03-07T15:09:25;11.50;99.90
48860;DHT22;34679;51.436;-2.518;2024-03-07T15:11:55;11.40;99.90
48860;DHT22;34679;51.436;-2.518;2024-03-07T15:14:21;11.50;99.90
48860;DHT22;34679;51.436;-2.518;2024-03-07T15:16:47;11.60;99.90
48860;DHT22;34679;51.436;-2.518;2024-03-07T15:19:14;11.50;99.90
48860;DHT22;34679;51.436;-2.518;2024-03-07T15:21:40;11.60;99.90
48860;DHT22;34679;51.436;-2.518;2024-03-07T15:24:06;11.50;99.90
48860;DHT22;34679;51.436;-2.518;2024-03-07T15:26:32;11.30;99.90
48860;DHT22;34679;51.436;-2.518;2024-03-07T15:28:59;11.30;99.90
48860;DHT22;34679;51.436;-2.518;2024-03-07T15:31:28;11.30;99.90
48860;DHT22;34679;51.436;-2.518;2024-03-07T15:33:54;11.30;99.90
48860;DHT22;34679;51.436;-2.518;2024-03-07T15:36:20;11.30;99.90
48860;DHT22;34679;51.436;-2.518;2024-03-07T15:38:51;11.40;99.90
48860;DHT22;34679;51.436;-2.518;2024-03-07T15:41:17;11.40;99.90
48860;DHT22;34679;51.436;-2.518;2024-03-07T15:43:43;11.50;99.90
48860;DHT22;34679;51.436;-2.518;2024-03-07T15:46:10;11.50;99.90
48860;DHT22;34679;51.436;-2.518;2024-03-07T15:48:44;11.60;99.90
48860;DHT22;34679;51.436;-2.518;2024-03-07T15:51:11;11.60;99.90
48860;DHT22;34679;51.436;-2.518;2024-03-07T15:53:38;11.60;99.90
48860;DHT22;34679;51.436;-2.518;2024-03-07T15:56:04;11.60;99.90
48860;DHT22;34679;51.436;-2.518;2024-03-07T15:58:33;11.70;99.90
48860;DHT22;34679;51.436;-2.518;2024-03-07T16:00:58;11.70;99.90
48860;DHT22;34679;51.436;-2.518;2024-03-07T16:03:24;11.50;99.90
48860;DHT22;34679;51.436;-2.518;2024-03-07T16:05:50;11.60;99.90
48860;DHT22;34679;51.436;-2.518;2024-03-07T16:08:17;11.60;99.90
48860;DHT22;34679;51.436;-2.518;2024-03-07T16:10:43;11.60;99.90
48860;DHT22;34679;51.436;-2.518;2024-03-07T16:13:12;11.60;99.90
48860;DHT22;34679;51.436;-2.518;2024-03-07T16:15:42;11.60;99.90
48860;DHT22;34679;51.436;-2.518;2024-03-07T16:18:09;11.70;99.90